Time;durP1;ratioP1;P1;durP2;ratioP2;P2;SDS_P1;SDS_P2;PMS_P1;PMS_P2;Temp;Humidity;BMP_temperature;BMP_pressure;BME280_temperature;BME280_humidity;BME280_pressure;Samples;Min_cycle;Max_cycle;Signal;HPM_P1;HPM_P2
2021/09/28 00:01:53;;;;;;;14.15;4.05;;;;;;;;;;5068884;28;20024;-66
2021/09/28 00:04:19;;;;;;;18.70;4.67;;;;;;;;;;5069765;28;20021;-64
2021/09/28 00:06:44;;;;;;;15.63;4.50;;;;;;;;;;5069707;28;20853;-65
2021/09/28 00:09:09;;;;;;;19.52;4.65;;;;;;;;;;5070324;28;20445;-65
2021/09/28 00:11:34;;;;;;;37.50;5.63;;;;;;;;;;5070153;28;20030;-64
2021/09/28 00:14:00;;;;;;;9.93;4.05;;;;;;;;;;5069709;28;20031;-65
2021/09/28 00:16:26;;;;;;;17.58;5.05;;;;;;;;;;5069234;28;20031;-65
2021/09/28 00:18:51;;;;;;;11.20;3.75;;;;;;;;;;5070710;28;20478;-64
2021/09/28 00:21:16;;;;;;;14.15;4.07;;;;;;;;;;5070331;28;20385;-65
2021/09/28 00:23:42;;;;;;;18.43;4.73;;;;;;;;;;5069537;28;20138;-64
2021/09/28 00:26:07;;;;;;;14.02;5.40;;;;;;;;;;5070249;28;20263;-66
2021/09/28 00:28:32;;;;;;;14.65;4.28;;;;;;;;;;5069624;28;20016;-65
2021/09/28 00:30:57;;;;;;;10.90;4.37;;;;;;;;;;5069745;28;20032;-65
2021/09/28 00:33:24;;;;;;;14.97;3.83;;;;;;;;;;5068627;28;20259;-65
2021/09/28 00:35:50;;;;;;;23.58;4.63;;;;;;;;;;5069024;28;20263;-64
2021/09/28 00:38:15;;;;;;;14.83;3.23;;;;;;;;;;5073800;28;20023;-66
2021/09/28 00:40:40;;;;;;;17.17;4.23;;;;;;;;;;5074098;28;20251;-66
2021/09/28 00:43:05;;;;;;;22.83;4.18;;;;;;;;;;5072929;28;20278;-66
2021/09/28 00:45:30;;;;;;;16.53;3.40;;;;;;;;;;5073802;28;20126;-65
2021/09/28 00:47:56;;;;;;;14.27;3.88;;;;;;;;;;5073698;28;20277;-65
2021/09/28 00:50:21;;;;;;;16.95;3.50;;;;;;;;;;5073307;28;20028;-65
2021/09/28 00:52:46;;;;;;;11.48;3.17;;;;;;;;;;5073296;28;20048;-65
2021/09/28 00:55:14;;;;;;;10.63;3.60;;;;;;;;;;5073686;28;20043;-65
2021/09/28 00:57:39;;;;;;;13.57;3.83;;;;;;;;;;5073297;28;20615;-64
2021/09/28 01:00:05;;;;;;;15.07;3.75;;;;;;;;;;5072935;28;20107;-65
2021/09/28 01:02:30;;;;;;;16.42;3.75;;;;;;;;;;5072686;28;20032;-65
2021/09/28 01:04:56;;;;;;;16.08;4.13;;;;;;;;;;5073472;28;20021;-64
2021/09/28 01:07:21;;;;;;;12.32;3.38;;;;;;;;;;5073669;28;20024;-64
2021/09/28 01:09:46;;;;;;;14.77;3.92;;;;;;;;;;5072350;28;20040;-66
2021/09/28 01:12:12;;;;;;;15.38;2.97;;;;;;;;;;5072860;28;20082;-65
2021/09/28 01:14:37;;;;;;;17.90;3.10;;;;;;;;;;5072750;28;20024;-65
2021/09/28 01:17:08;;;;;;;15.23;3.30;;;;;;;;;;5073087;28;20501;-65
2021/09/28 01:19:34;;;;;;;18.02;2.88;;;;;;;;;;5072846;28;20035;-64
2021/09/28 01:21:59;;;;;;;15.25;3.47;;;;;;;;;;5069709;28;20024;-64
2021/09/28 01:24:26;;;;;;;18.53;2.93;;;;;;;;;;5071987;28;20095;-65
2021/09/28 01:26:51;;;;;;;15.45;4.10;;;;;;;;;;5072277;28;20613;-65
2021/09/28 01:29:17;;;;;;;17.23;4.13;;;;;;;;;;5071563;28;20031;-66
2021/09/28 01:31:45;;;;;;;21.35;3.95;;;;;;;;;;5072475;28;20051;-64
2021/09/28 01:34:10;;;;;;;10.45;3.15;;;;;;;;;;5072201;28;20027;-66
2021/09/28 01:36:36;;;;;;;12.02;3.33;;;;;;;;;;5072898;28;20020;-65
2021/09/28 01:39:02;;;;;;;11.52;3.40;;;;;;;;;;5072172;28;20039;-66
2021/09/28 01:41:27;;;;;;;11.52;3.08;;;;;;;;;;5072037;28;20036;-65
2021/09/28 01:44:08;;;;;;;14.52;3.53;;;;;;;;;;5072413;28;20036;-64
2021/09/28 01:46:37;;;;;;;15.23;3.63;;;;;;;;;;5071676;28;20098;-67
2021/09/28 01:49:02;;;;;;;6.15;3.25;;;;;;;;;;5072740;28;20029;-64
2021/09/28 01:51:28;;;;;;;16.20;3.83;;;;;;;;;;5072188;28;20025;-66
2021/09/28 01:53:53;;;;;;;18.60;3.80;;;;;;;;;;5072441;28;20103;-65
2021/09/28 01:56:22;;;;;;;10.93;3.10;;;;;;;;;;5071924;28;20012;-65
2021/09/28 01:58:48;;;;;;;17.92;4.18;;;;;;;;;;5071371;28;20302;-64
2021/09/28 02:01:13;;;;;;;15.45;4.43;;;;;;;;;;5071900;28;20048;-65
2021/09/28 02:03:38;;;;;;;14.02;4.90;;;;;;;;;;5071386;28;20027;-66
2021/09/28 02:06:04;;;;;;;15.00;3.67;;;;;;;;;;5071870;28;20623;-65
2021/09/28 02:08:29;;;;;;;9.68;3.85;;;;;;;;;;5071012;28;20519;-65
2021/09/28 02:10:54;;;;;;;12.83;3.60;;;;;;;;;;5070912;28;20024;-66
2021/09/28 02:13:19;;;;;;;12.27;3.88;;;;;;;;;;5070681;28;20336;-65
2021/09/28 02:15:45;;;;;;;14.18;3.70;;;;;;;;;;5070905;28;20082;-65
2021/09/28 02:18:10;;;;;;;18.10;4.88;;;;;;;;;;5071528;28;20050;-65
2021/09/28 02:20:35;;;;;;;17.92;4.22;;;;;;;;;;5072480;28;20496;-64
2021/09/28 02:23:00;;;;;;;13.30;4.07;;;;;;;;;;5072065;28;20077;-66
2021/09/28 02:25:26;;;;;;;9.20;4.03;;;;;;;;;;5071893;28;20267;-64
2021/09/28 02:27:51;;;;;;;12.65;3.35;;;;;;;;;;5071084;28;20029;-67
2021/09/28 02:30:16;;;;;;;17.70;3.47;;;;;;;;;;5072015;28;20039;-65
2021/09/28 02:32:41;;;;;;;14.20;3.38;;;;;;;;;;5065439;28;20017;-65
2021/09/28 02:35:07;;;;;;;14.07;4.30;;;;;;;;;;5070314;28;20065;-65
2021/09/28 02:37:32;;;;;;;11.52;4.63;;;;;;;;;;5071231;28;20381;-65
2021/09/28 02:39:57;;;;;;;6.73;3.57;;;;;;;;;;5072329;28;20025;-64
2021/09/28 02:42:22;;;;;;;14.23;3.42;;;;;;;;;;5071530;28;20267;-65
2021/09/28 02:44:48;;;;;;;16.70;3.70;;;;;;;;;;5071409;28;20107;-67
2021/09/28 02:47:14;;;;;;;13.45;4.35;;;;;;;;;;5071824;28;20263;-66
2021/09/28 02:49:39;;;;;;;17.52;4.60;;;;;;;;;;5071307;28;20020;-65
2021/09/28 02:52:04;;;;;;;10.87;4.40;;;;;;;;;;5071842;28;20473;-65
2021/09/28 02:54:29;;;;;;;20.10;4.55;;;;;;;;;;5071328;28;20271;-65
2021/09/28 02:56:55;;;;;;;13.17;4.60;;;;;;;;;;5071096;28;20029;-64
2021/09/28 02:59:20;;;;;;;15.27;5.10;;;;;;;;;;5070860;28;20888;-65
2021/09/28 03:01:46;;;;;;;19.52;4.63;;;;;;;;;;5070784;28;20035;-65
2021/09/28 03:04:11;;;;;;;8.70;4.60;;;;;;;;;;5070584;28;20017;-64
2021/09/28 03:06:36;;;;;;;14.82;5.85;;;;;;;;;;5071052;28;20032;-65
2021/09/28 03:09:01;;;;;;;17.80;6.47;;;;;;;;;;5071353;28;20093;-65
2021/09/28 03:11:27;;;;;;;20.08;5.85;;;;;;;;;;5070359;28;20274;-66
2021/09/28 03:13:53;;;;;;;16.45;5.53;;;;;;;;;;5066759;28;20032;-65
2021/09/28 03:16:18;;;;;;;17.35;5.80;;;;;;;;;;5069906;28;20496;-64
2021/09/28 03:18:43;;;;;;;20.20;6.07;;;;;;;;;;5070525;28;20020;-65
2021/09/28 03:21:09;;;;;;;20.90;5.47;;;;;;;;;;5069438;28;20332;-66
2021/09/28 03:23:34;;;;;;;22.03;5.20;;;;;;;;;;5069335;28;20270;-65
2021/09/28 03:25:59;;;;;;;15.70;5.22;;;;;;;;;;5069593;28;20265;-65
2021/09/28 03:28:24;;;;;;;20.55;5.43;;;;;;;;;;5070819;28;20550;-64
2021/09/28 03:30:49;;;;;;;21.77;4.53;;;;;;;;;;5070111;28;20047;-65
2021/09/28 03:33:14;;;;;;;10.73;4.97;;;;;;;;;;5068784;28;20255;-64
2021/09/28 03:35:40;;;;;;;22.50;4.70;;;;;;;;;;5068748;28;20032;-65
2021/09/28 03:38:05;;;;;;;17.45;5.22;;;;;;;;;;5068951;28;20020;-66
2021/09/28 03:40:30;;;;;;;17.93;4.70;;;;;;;;;;5068921;28;20070;-65
2021/09/28 03:42:56;;;;;;;21.10;5.18;;;;;;;;;;5068943;28;20265;-66
2021/09/28 03:45:21;;;;;;;19.55;4.88;;;;;;;;;;5067748;28;20489;-66
2021/09/28 03:47:47;;;;;;;20.10;4.90;;;;;;;;;;5069446;28;20086;-64
2021/09/28 03:50:12;;;;;;;18.98;4.57;;;;;;;;;;5067752;28;20487;-65
2021/09/28 03:52:37;;;;;;;12.52;4.82;;;;;;;;;;5069553;28;20473;-65
2021/09/28 03:55:03;;;;;;;17.95;5.13;;;;;;;;;;5070791;28;20070;-65
2021/09/28 03:57:28;;;;;;;19.38;4.32;;;;;;;;;;5070600;28;20043;-66
2021/09/28 03:59:53;;;;;;;14.45;4.43;;;;;;;;;;5070533;28;20035;-64
2021/09/28 04:02:18;;;;;;;18.65;5.10;;;;;;;;;;5068884;28;20056;-64
2021/09/28 04:04:44;;;;;;;15.93;5.10;;;;;;;;;;5067909;28;20032;-64
2021/09/28 04:07:09;;;;;;;20.08;4.60;;;;;;;;;;5069164;28;20747;-65
2021/09/28 04:09:34;;;;;;;16.15;4.43;;;;;;;;;;5068398;28;20026;-64
2021/09/28 04:11:59;;;;;;;14.63;4.30;;;;;;;;;;5063829;28;20020;-64
2021/09/28 04:14:26;;;;;;;9.00;3.30;;;;;;;;;;5069154;28;20721;-65
2021/09/28 04:16:51;;;;;;;14.00;3.95;;;;;;;;;;5069551;28;20015;-66
2021/09/28 04:19:16;;;;;;;14.45;4.03;;;;;;;;;;5070070;28;20111;-64
2021/09/28 04:21:42;;;;;;;18.03;4.50;;;;;;;;;;5068298;28;20032;-65
2021/09/28 04:24:07;;;;;;;16.23;4.45;;;;;;;;;;5069011;28;20351;-66
2021/09/28 04:26:35;;;;;;;14.40;3.92;;;;;;;;;;5068863;28;20033;-65
2021/09/28 04:29:00;;;;;;;17.77;5.15;;;;;;;;;;5068845;28;20111;-66
2021/09/28 04:31:26;;;;;;;11.60;4.15;;;;;;;;;;5064097;28;20108;-64
2021/09/28 04:33:51;;;;;;;15.70;4.90;;;;;;;;;;5067933;28;20367;-65
2021/09/28 04:36:16;;;;;;;15.77;5.13;;;;;;;;;;5069349;28;20017;-65
2021/09/28 04:38:41;;;;;;;20.00;5.10;;;;;;;;;;5068693;28;20266;-67
2021/09/28 04:41:07;;;;;;;17.50;5.07;;;;;;;;;;5069262;28;20519;-64
2021/09/28 04:43:32;;;;;;;13.20;3.35;;;;;;;;;;5068481;28;20043;-65
2021/09/28 04:45:57;;;;;;;22.45;4.47;;;;;;;;;;5053366;28;20385;-65
2021/09/28 04:48:22;;;;;;;12.10;3.53;;;;;;;;;;5066577;28;20399;-64
2021/09/28 04:50:49;;;;;;;18.30;3.88;;;;;;;;;;5068798;28;20032;-67
2021/09/28 04:53:15;;;;;;;13.98;3.97;;;;;;;;;;5068759;28;20009;-65
2021/09/28 04:55:40;;;;;;;10.73;3.00;;;;;;;;;;5068515;28;20029;-64
2021/09/28 04:58:05;;;;;;;19.77;4.30;;;;;;;;;;5068900;28;20017;-64
2021/09/28 05:00:30;;;;;;;19.98;4.15;;;;;;;;;;5069431;28;20298;-66
2021/09/28 05:02:56;;;;;;;14.60;4.10;;;;;;;;;;5064889;28;20121;-65
2021/09/28 05:05:21;;;;;;;13.05;3.50;;;;;;;;;;5061575;28;20024;-66
2021/09/28 05:07:46;;;;;;;14.50;4.07;;;;;;;;;;5066983;28;20029;-64
2021/09/28 05:10:11;;;;;;;21.13;3.47;;;;;;;;;;5064202;28;20033;-66
2021/09/28 05:12:37;;;;;;;19.50;3.78;;;;;;;;;;5066675;28;20798;-66
2021/09/28 05:15:03;;;;;;;20.40;4.20;;;;;;;;;;5061941;28;20521;-64
2021/09/28 05:17:28;;;;;;;17.00;3.85;;;;;;;;;;5066838;28;20035;-64
2021/09/28 05:19:53;;;;;;;15.68;4.10;;;;;;;;;;5067664;28;20025;-65
2021/09/28 05:22:18;;;;;;;12.77;3.57;;;;;;;;;;5069312;28;20025;-65
2021/09/28 05:24:44;;;;;;;17.23;3.75;;;;;;;;;;5064851;28;20372;-64
2021/09/28 05:27:09;;;;;;;12.68;3.42;;;;;;;;;;5067222;28;20389;-65
2021/09/28 05:29:34;;;;;;;10.93;3.10;;;;;;;;;;5070035;28;20431;-64
2021/09/28 05:31:59;;;;;;;7.32;3.25;;;;;;;;;;5064056;28;20017;-66
2021/09/28 05:34:25;;;;;;;14.70;4.13;;;;;;;;;;5068754;28;20024;-64
2021/09/28 05:36:51;;;;;;;18.40;4.53;;;;;;;;;;5069735;28;20016;-64
2021/09/28 05:39:16;;;;;;;20.63;3.83;;;;;;;;;;5062511;28;20036;-64
2021/09/28 05:41:42;;;;;;;16.38;4.32;;;;;;;;;;5069392;28;20078;-66
2021/09/28 05:44:07;;;;;;;13.90;4.60;;;;;;;;;;5088215;22;20453;-70
2021/09/28 05:46:32;;;;;;;13.68;3.88;;;;;;;;;;5066673;28;20278;-70
2021/09/28 05:48:57;;;;;;;12.90;3.33;;;;;;;;;;5075449;28;20024;-70
2021/09/28 05:51:25;;;;;;;14.70;3.17;;;;;;;;;;5070841;28;20024;-70
2021/09/28 05:53:51;;;;;;;14.55;3.03;;;;;;;;;;5070210;28;20274;-70
2021/09/28 05:56:16;;;;;;;18.30;3.40;;;;;;;;;;5070355;28;20490;-70
2021/09/28 05:58:41;;;;;;;16.67;3.67;;;;;;;;;;5068551;28;20103;-70
2021/09/28 06:01:07;;;;;;;20.98;3.58;;;;;;;;;;5062303;28;20073;-70
2021/09/28 06:03:32;;;;;;;15.02;4.10;;;;;;;;;;5065645;28;20052;-70
2021/09/28 06:05:57;;;;;;;15.88;3.88;;;;;;;;;;5070462;28;20020;-70
2021/09/28 06:08:22;;;;;;;14.82;3.33;;;;;;;;;;5062856;28;20028;-71
2021/09/28 06:10:47;;;;;;;20.10;3.78;;;;;;;;;;5060726;28;20431;-71
2021/09/28 06:13:13;;;;;;;14.13;3.55;;;;;;;;;;5068043;28;20023;-71
2021/09/28 06:15:39;;;;;;;19.13;3.83;;;;;;;;;;5072248;28;20665;-71
2021/09/28 06:18:04;;;;;;;12.90;3.60;;;;;;;;;;5071978;28;20024;-71
2021/09/28 06:20:29;;;;;;;26.50;5.35;;;;;;;;;;5072102;28;20118;-71
2021/09/28 06:22:54;;;;;;;11.50;3.85;;;;;;;;;;5071627;28;20031;-71
2021/09/28 06:25:19;;;;;;;13.00;3.03;;;;;;;;;;5071365;28;20024;-71
2021/09/28 06:27:45;;;;;;;15.40;2.88;;;;;;;;;;5072046;28;20631;-71
2021/09/28 06:30:10;;;;;;;18.55;3.33;;;;;;;;;;5071093;28;20400;-70
2021/09/28 06:32:35;;;;;;;16.67;3.28;;;;;;;;;;5071626;28;20024;-70
2021/09/28 06:35:00;;;;;;;10.63;3.10;;;;;;;;;;5071311;28;20039;-70
2021/09/28 06:37:26;;;;;;;11.70;2.43;;;;;;;;;;5066408;28;20668;-71
2021/09/28 06:39:51;;;;;;;13.97;2.53;;;;;;;;;;5071980;28;20281;-70
2021/09/28 06:42:16;;;;;;;6.80;2.55;;;;;;;;;;5071394;28;20284;-70
2021/09/28 06:44:41;;;;;;;18.17;3.57;;;;;;;;;;5071794;28;20032;-71
2021/09/28 06:47:06;;;;;;;10.52;2.47;;;;;;;;;;5071716;28;20769;-70
2021/09/28 06:49:32;;;;;;;11.75;3.10;;;;;;;;;;5071273;28;20028;-71
2021/09/28 06:51:57;;;;;;;12.57;2.55;;;;;;;;;;5069873;28;20059;-71
2021/09/28 06:54:23;;;;;;;15.90;3.90;;;;;;;;;;5062980;28;20036;-71
2021/09/28 06:56:48;;;;;;;11.05;3.63;;;;;;;;;;5070785;28;20411;-71
2021/09/28 06:59:13;;;;;;;9.60;2.23;;;;;;;;;;5071004;28;20040;-71
2021/09/28 07:01:39;;;;;;;14.85;2.30;;;;;;;;;;5072486;28;20270;-71
2021/09/28 07:04:04;;;;;;;10.68;2.22;;;;;;;;;;5068742;28;20032;-71
2021/09/28 07:06:30;;;;;;;17.83;2.63;;;;;;;;;;5071282;28;20472;-71
2021/09/28 07:08:55;;;;;;;12.13;2.75;;;;;;;;;;5070315;28;20025;-71
2021/09/28 07:11:20;;;;;;;9.00;2.17;;;;;;;;;;5071977;28;20385;-71
2021/09/28 07:13:48;;;;;;;8.07;2.28;;;;;;;;;;5071038;28;20325;-71
2021/09/28 07:16:14;;;;;;;13.90;2.75;;;;;;;;;;5070422;28;20031;-72
2021/09/28 07:18:40;;;;;;;10.65;1.75;;;;;;;;;;5061021;28;20088;-71
2021/09/28 07:21:05;;;;;;;7.90;2.45;;;;;;;;;;5071276;28;20029;-72
2021/09/28 07:23:31;;;;;;;16.23;2.03;;;;;;;;;;5068796;28;20056;-72
2021/09/28 07:25:56;;;;;;;10.05;2.22;;;;;;;;;;5071188;28;20020;-72
2021/09/28 07:28:21;;;;;;;17.50;1.98;;;;;;;;;;5070384;28;20070;-72
2021/09/28 07:30:46;;;;;;;10.93;2.73;;;;;;;;;;5071014;28;20524;-72
2021/09/28 07:33:12;;;;;;;9.55;2.05;;;;;;;;;;5070618;28;20277;-72
2021/09/28 07:35:37;;;;;;;17.23;2.20;;;;;;;;;;5070813;28;20495;-72
2021/09/28 07:38:02;;;;;;;13.07;1.92;;;;;;;;;;5070033;28;20285;-71
2021/09/28 07:40:27;;;;;;;9.37;2.00;;;;;;;;;;5070665;28;20295;-72
2021/09/28 07:42:52;;;;;;;9.90;2.30;;;;;;;;;;5070032;28;20673;-71
2021/09/28 07:45:18;;;;;;;12.20;2.17;;;;;;;;;;5069279;28;20639;-72
2021/09/28 07:47:43;;;;;;;15.02;2.20;;;;;;;;;;5071520;28;20278;-71
2021/09/28 07:50:08;;;;;;;14.85;2.03;;;;;;;;;;5070572;28;20016;-72
2021/09/28 07:52:34;;;;;;;11.88;2.60;;;;;;;;;;5068690;28;20452;-72
2021/09/28 07:54:59;;;;;;;10.00;1.77;;;;;;;;;;5070214;28;20082;-72
2021/09/28 07:57:24;;;;;;;10.70;1.10;;;;;;;;;;5070815;28;20016;-72
2021/09/28 07:59:51;;;;;;;10.07;1.73;;;;;;;;;;5071065;28;20054;-72
2021/09/28 08:02:19;;;;;;;14.90;2.17;;;;;;;;;;5064307;28;20032;-71
2021/09/28 08:04:45;;;;;;;7.85;1.80;;;;;;;;;;5068035;28;20039;-72
2021/09/28 08:07:12;;;;;;;9.45;2.50;;;;;;;;;;5070742;28;20095;-72
2021/09/28 08:09:38;;;;;;;9.30;1.60;;;;;;;;;;5070708;28;20074;-72
2021/09/28 08:12:03;;;;;;;8.63;2.35;;;;;;;;;;5070031;28;20435;-72
2021/09/28 08:14:29;;;;;;;6.30;1.95;;;;;;;;;;5070243;28;20020;-72
2021/09/28 08:16:54;;;;;;;7.00;2.08;;;;;;;;;;5070439;28;20146;-72
2021/09/28 08:19:19;;;;;;;13.50;1.40;;;;;;;;;;5070796;28;20063;-72
2021/09/28 08:21:44;;;;;;;4.53;0.90;;;;;;;;;;5070807;28;20274;-72
2021/09/28 08:24:10;;;;;;;11.55;2.00;;;;;;;;;;5068678;28;20328;-72
2021/09/28 08:29:09;;;;;;;9.32;1.77;;;;;;;;;;5069727;28;20020;-72
2021/09/28 08:31:36;;;;;;;9.18;2.55;;;;;;;;;;5069693;28;20021;-72
2021/09/28 08:34:02;;;;;;;9.75;1.63;;;;;;;;;;5058116;28;20107;-71
2021/09/28 08:36:27;;;;;;;23.98;2.15;;;;;;;;;;5069621;28;20077;-72
2021/09/28 08:38:52;;;;;;;9.80;2.37;;;;;;;;;;5070537;28;20461;-72
2021/09/28 08:41:17;;;;;;;6.68;1.95;;;;;;;;;;5069870;28;20269;-72
2021/09/28 08:43:43;;;;;;;11.15;1.85;;;;;;;;;;5069411;28;20024;-71
2021/09/28 08:46:08;;;;;;;13.10;2.05;;;;;;;;;;5065617;28;20588;-72
2021/09/28 08:48:33;;;;;;;6.37;1.53;;;;;;;;;;5062592;28;20021;-72
2021/09/28 08:50:58;;;;;;;5.80;1.27;;;;;;;;;;5070168;28;20301;-72
2021/09/28 08:53:23;;;;;;;8.70;1.00;;;;;;;;;;5069878;28;20896;-72
2021/09/28 08:55:49;;;;;;;9.80;1.90;;;;;;;;;;5068847;28;20055;-71
2021/09/28 08:58:14;;;;;;;5.97;0.97;;;;;;;;;;5074291;28;20395;-72
2021/09/28 09:00:39;;;;;;;7.72;1.55;;;;;;;;;;5072090;28;20267;-71
2021/09/28 09:03:04;;;;;;;4.47;1.25;;;;;;;;;;5053813;28;20066;-72
2021/09/28 09:05:29;;;;;;;19.97;2.13;;;;;;;;;;5059359;28;20012;-72
2021/09/28 09:07:59;;;;;;;6.97;1.27;;;;;;;;;;5073057;28;20270;-72
2021/09/28 09:10:25;;;;;;;4.78;1.08;;;;;;;;;;5073844;28;20275;-72
2021/09/28 09:12:50;;;;;;;6.78;1.73;;;;;;;;;;5073456;28;20028;-72
2021/09/28 09:15:16;;;;;;;18.40;2.17;;;;;;;;;;5074043;28;20020;-71
2021/09/28 09:17:41;;;;;;;10.80;1.45;;;;;;;;;;5074202;28;20635;-72
2021/09/28 09:20:23;;;;;;;8.80;1.50;;;;;;;;;;5073472;28;20050;-71
2021/09/28 09:22:48;;;;;;;6.30;1.20;;;;;;;;;;5071201;28;20266;-71
2021/09/28 09:25:20;;;;;;;5.63;0.97;;;;;;;;;;5073582;28;20021;-72
2021/09/28 09:27:45;;;;;;;8.27;1.30;;;;;;;;;;5072682;28;20050;-72
2021/09/28 09:30:13;;;;;;;10.85;1.63;;;;;;;;;;5073923;28;20025;-71
2021/09/28 09:32:45;;;;;;;11.23;1.52;;;;;;;;;;5073224;28;20096;-72
2021/09/28 09:35:10;;;;;;;16.35;1.65;;;;;;;;;;5073498;28;20027;-71
2021/09/28 09:37:38;;;;;;;6.77;1.67;;;;;;;;;;5072903;28;20103;-71
2021/09/28 09:40:04;;;;;;;8.70;2.13;;;;;;;;;;5073590;28;20346;-71
2021/09/28 09:42:29;;;;;;;10.95;2.03;;;;;;;;;;5073134;28;20059;-72
2021/09/28 09:44:54;;;;;;;12.77;1.70;;;;;;;;;;5072002;28;20427;-71
2021/09/28 09:47:34;;;;;;;9.63;1.73;;;;;;;;;;5073819;28;20047;-72
2021/09/28 09:50:12;;;;;;;8.95;1.65;;;;;;;;;;5073031;28;20286;-71
2021/09/28 09:52:43;;;;;;;11.77;1.45;;;;;;;;;;5072556;28;20013;-72
2021/09/28 09:55:23;;;;;;;12.27;2.45;;;;;;;;;;5072835;28;20495;-72
2021/09/28 09:57:48;;;;;;;10.20;2.13;;;;;;;;;;5073112;28;20016;-71
2021/09/28 10:00:14;;;;;;;15.37;2.27;;;;;;;;;;5073412;28;20107;-71
2021/09/28 10:02:39;;;;;;;9.70;1.75;;;;;;;;;;5067382;28;20275;-72
2021/09/28 10:05:04;;;;;;;11.60;2.20;;;;;;;;;;5069375;28;20051;-71
2021/09/28 10:07:29;;;;;;;7.97;1.42;;;;;;;;;;5072558;28;20267;-71
2021/09/28 10:09:55;;;;;;;12.63;1.67;;;;;;;;;;5072983;28;20515;-71
2021/09/28 10:12:20;;;;;;;12.73;1.83;;;;;;;;;;5071965;28;20263;-71
2021/09/28 10:14:45;;;;;;;11.20;1.42;;;;;;;;;;5072500;28;20032;-71
2021/09/28 10:17:34;;;;;;;13.90;1.90;;;;;;;;;;5065697;28;20016;-71
2021/09/28 10:20:02;;;;;;;12.30;2.25;;;;;;;;;;5072296;28;20035;-71
2021/09/28 10:22:33;;;;;;;9.10;2.00;;;;;;;;;;5072839;28;20037;-71
2021/09/28 10:25:17;;;;;;;9.73;2.30;;;;;;;;;;5072614;28;20394;-71
2021/09/28 10:27:42;;;;;;;10.98;3.03;;;;;;;;;;5072662;28;20025;-71
2021/09/28 10:30:07;;;;;;;13.97;1.90;;;;;;;;;;5072737;28;20050;-71
2021/09/28 10:32:34;;;;;;;7.05;1.48;;;;;;;;;;5072762;28;20270;-71
2021/09/28 10:35:06;;;;;;;14.75;1.77;;;;;;;;;;5070312;28;20473;-71
2021/09/28 10:37:50;;;;;;;13.70;1.80;;;;;;;;;;5072528;28;21790;-71
2021/09/28 10:40:17;;;;;;;19.98;2.83;;;;;;;;;;5071549;28;20040;-72
2021/09/28 10:42:52;;;;;;;19.52;1.92;;;;;;;;;;5070407;28;20078;-72
2021/09/28 10:45:17;;;;;;;16.83;1.75;;;;;;;;;;5072314;28;20085;-71
2021/09/28 10:47:44;;;;;;;11.00;1.57;;;;;;;;;;5071138;28;20028;-71
2021/09/28 10:50:16;;;;;;;4.25;0.95;;;;;;;;;;5061755;28;20033;-71
2021/09/28 10:52:41;;;;;;;16.25;2.85;;;;;;;;;;5052564;28;20017;-71
2021/09/28 10:55:07;;;;;;;17.23;2.30;;;;;;;;;;5069343;28;20016;-71
2021/09/28 10:57:51;;;;;;;10.02;1.50;;;;;;;;;;5060675;28;20918;-72
2021/09/28 11:00:16;;;;;;;14.18;2.47;;;;;;;;;;5071414;28;20103;-71
2021/09/28 11:02:51;;;;;;;13.20;1.70;;;;;;;;;;5071621;28;20104;-71
2021/09/28 11:05:32;;;;;;;15.52;2.20;;;;;;;;;;5072345;28;20694;-71
2021/09/28 11:08:00;;;;;;;9.02;2.00;;;;;;;;;;5070885;28;20025;-72
2021/09/28 11:10:26;;;;;;;12.60;1.33;;;;;;;;;;5072204;28;20423;-71
2021/09/28 11:12:51;;;;;;;10.10;1.42;;;;;;;;;;5059072;28;20021;-71
2021/09/28 11:15:18;;;;;;;10.40;1.75;;;;;;;;;;5066034;28;20036;-71
2021/09/28 11:17:43;;;;;;;12.57;2.28;;;;;;;;;;5067814;28;20025;-72
2021/09/28 11:20:21;;;;;;;9.70;2.17;;;;;;;;;;5070268;28;20028;-71
2021/09/28 11:22:57;;;;;;;9.02;1.58;;;;;;;;;;5071662;28;20619;-71
2021/09/28 11:25:22;;;;;;;5.43;1.42;;;;;;;;;;5071286;28;20027;-70
2021/09/28 11:28:02;;;;;;;10.13;2.15;;;;;;;;;;5071396;28;20020;-71
2021/09/28 11:30:28;;;;;;;7.18;2.17;;;;;;;;;;5071273;28;20025;-72
2021/09/28 11:33:00;;;;;;;8.75;2.58;;;;;;;;;;5071045;28;20112;-71
2021/09/28 11:35:25;;;;;;;14.32;1.63;;;;;;;;;;5072029;28;20074;-71
2021/09/28 11:37:54;;;;;;;14.00;1.95;;;;;;;;;;5070465;28;20020;-71
2021/09/28 11:40:19;;;;;;;9.25;1.40;;;;;;;;;;5070903;28;20024;-71
2021/09/28 11:42:44;;;;;;;9.43;1.55;;;;;;;;;;5071207;28;20028;-71
2021/09/28 11:45:10;;;;;;;6.05;1.20;;;;;;;;;;5092869;22;20084;-69
2021/09/28 11:47:40;;;;;;;11.10;1.75;;;;;;;;;;5069179;28;20028;-69
2021/09/28 11:50:06;;;;;;;7.35;1.58;;;;;;;;;;5069933;28;20028;-68
2021/09/28 11:52:34;;;;;;;12.13;2.08;;;;;;;;;;5069075;28;20108;-68
2021/09/28 11:54:59;;;;;;;7.53;1.67;;;;;;;;;;5069279;28;20028;-70
2021/09/28 11:57:25;;;;;;;12.57;2.15;;;;;;;;;;5070193;28;20488;-67
2021/09/28 11:59:51;;;;;;;10.88;1.00;;;;;;;;;;5070164;28;20387;-69
2021/09/28 12:02:17;;;;;;;6.43;1.58;;;;;;;;;;5068382;28;20460;-67
2021/09/28 12:05:23;;;;;;;9.15;2.88;;;;;;;;;;5070282;28;20099;-69
2021/09/28 12:10:14;;;;;;;8.27;1.20;;;;;;;;;;5059869;28;20031;-68
2021/09/28 12:12:39;;;;;;;12.85;1.77;;;;;;;;;;5069704;28;20027;-69
2021/09/28 12:15:06;;;;;;;14.18;1.60;;;;;;;;;;5069828;28;20016;-69
2021/09/28 12:17:32;;;;;;;6.43;1.98;;;;;;;;;;5069664;28;20426;-69
2021/09/28 12:20:02;;;;;;;7.78;1.42;;;;;;;;;;5070112;28;20104;-68
2021/09/28 12:22:28;;;;;;;;;;;;;;;;;;5069345;28;20488;-69
2021/09/28 12:24:53;;;;;;;7.68;1.10;;;;;;;;;;5064500;28;19916;-69
2021/09/28 12:27:19;;;;;;;14.23;1.33;;;;;;;;;;5063688;28;20048;-69
2021/09/28 12:29:46;;;;;;;19.73;1.95;;;;;;;;;;5069966;28;20035;-69
2021/09/28 12:32:22;;;;;;;9.73;1.10;;;;;;;;;;5069853;28;20096;-69
2021/09/28 12:35:02;;;;;;;6.55;1.52;;;;;;;;;;5070029;28;20021;-69
2021/09/28 12:37:29;;;;;;;7.35;1.48;;;;;;;;;;5063378;28;20021;-69
2021/09/28 12:40:07;;;;;;;17.38;1.42;;;;;;;;;;5060924;28;20027;-69
2021/09/28 12:42:33;;;;;;;11.43;1.20;;;;;;;;;;5064189;28;20107;-69
2021/09/28 12:45:04;;;;;;;6.60;1.45;;;;;;;;;;5069011;28;20028;-69
2021/09/28 12:47:31;;;;;;;9.93;0.93;;;;;;;;;;5058072;28;20016;-69
2021/09/28 12:49:58;;;;;;;4.38;0.45;;;;;;;;;;5069980;28;20019;-69
2021/09/28 12:52:23;;;;;;;7.03;1.10;;;;;;;;;;5068978;28;20074;-69
2021/09/28 12:54:48;;;;;;;12.05;1.67;;;;;;;;;;5068943;28;20464;-69
2021/09/28 12:57:14;;;;;;;1.92;0.60;;;;;;;;;;5067778;28;20028;-69
2021/09/28 12:59:40;;;;;;;6.57;1.60;;;;;;;;;;5069683;28;20035;-69
2021/09/28 13:02:05;;;;;;;8.85;1.35;;;;;;;;;;5068358;28;20021;-69
2021/09/28 13:04:32;;;;;;;7.70;0.80;;;;;;;;;;5069013;28;20221;-69
2021/09/28 13:06:59;;;;;;;9.02;1.58;;;;;;;;;;5069526;28;20297;-69
2021/09/28 13:09:24;;;;;;;9.65;1.15;;;;;;;;;;5066213;28;20535;-69
2021/09/28 13:11:49;;;;;;;4.75;1.63;;;;;;;;;;5068673;28;20029;-67
2021/09/28 13:14:14;;;;;;;10.63;1.10;;;;;;;;;;5069226;28;20021;-69
2021/09/28 13:16:40;;;;;;;5.70;0.88;;;;;;;;;;5069259;28;20304;-69
2021/09/28 13:19:05;;;;;;;6.47;0.98;;;;;;;;;;5069598;28;20021;-69
2021/09/28 13:21:30;;;;;;;7.45;1.42;;;;;;;;;;5068828;28;20107;-68
2021/09/28 13:23:56;;;;;;;7.07;0.98;;;;;;;;;;5068805;28;20534;-68
2021/09/28 13:26:21;;;;;;;11.60;1.60;;;;;;;;;;5069062;28;20026;-69
2021/09/28 13:28:46;;;;;;;7.13;1.13;;;;;;;;;;5068589;28;20020;-69
2021/09/28 13:31:11;;;;;;;11.00;1.50;;;;;;;;;;5069179;28;20070;-69
2021/09/28 13:33:36;;;;;;;12.20;1.77;;;;;;;;;;5067639;28;20470;-67
2021/09/28 13:36:02;;;;;;;11.70;1.58;;;;;;;;;;5068199;28;20487;-70
2021/09/28 13:38:27;;;;;;;2.78;1.27;;;;;;;;;;5069044;28;20025;-69
2021/09/28 13:40:52;;;;;;;11.77;1.57;;;;;;;;;;5068298;28;20024;-69
2021/09/28 13:43:18;;;;;;;11.40;1.00;;;;;;;;;;5070243;28;20769;-69
2021/09/28 13:45:44;;;;;;;10.43;1.30;;;;;;;;;;5071424;28;20029;-69
2021/09/28 13:48:09;;;;;;;3.35;0.95;;;;;;;;;;5072310;28;20040;-69
2021/09/28 13:50:35;;;;;;;9.43;1.42;;;;;;;;;;5072483;28;20028;-69
2021/09/28 13:53:00;;;;;;;6.07;1.30;;;;;;;;;;5072193;28;20016;-69
2021/09/28 13:55:25;;;;;;;6.28;1.20;;;;;;;;;;5072385;28;20024;-68
2021/09/28 13:57:50;;;;;;;9.23;1.33;;;;;;;;;;5072434;28;20046;-69
2021/09/28 14:00:16;;;;;;;10.07;1.53;;;;;;;;;;5071878;28;20305;-68
2021/09/28 14:02:41;;;;;;;5.90;1.80;;;;;;;;;;5071882;28;20267;-69
2021/09/28 14:05:07;;;;;;;7.87;1.33;;;;;;;;;;5072746;28;20464;-69
2021/09/28 14:07:32;;;;;;;6.38;1.45;;;;;;;;;;5071793;28;20306;-68
2021/09/28 14:09:57;;;;;;;11.95;2.83;;;;;;;;;;5069271;28;20483;-69
2021/09/28 14:12:22;;;;;;;6.50;1.40;;;;;;;;;;5062580;28;20380;-69
2021/09/28 14:14:47;;;;;;;4.28;1.45;;;;;;;;;;5071454;28;20259;-69
2021/09/28 14:17:13;;;;;;;4.00;1.10;;;;;;;;;;5072235;28;20358;-69
2021/09/28 14:19:38;;;;;;;5.80;1.55;;;;;;;;;;5071851;28;20274;-69
2021/09/28 14:22:03;;;;;;;6.22;1.10;;;;;;;;;;5069527;28;20137;-68
2021/09/28 14:24:29;;;;;;;5.10;1.38;;;;;;;;;;5064338;28;20021;-68
2021/09/28 14:26:54;;;;;;;8.57;1.48;;;;;;;;;;5063007;28;20082;-69
2021/09/28 14:29:19;;;;;;;7.47;2.42;;;;;;;;;;5070525;28;20091;-69
2021/09/28 14:31:44;;;;;;;8.10;1.85;;;;;;;;;;5071060;28;20468;-68
2021/09/28 14:34:10;;;;;;;4.70;1.53;;;;;;;;;;5070312;28;20028;-69